createdAt,value
2022-09-14T00:01:32.883Z,21.57
2022-09-14T00:04:03.732Z,21.57
2022-09-14T00:06:32.418Z,21.52
2022-09-14T00:09:01.549Z,21.49
2022-09-14T00:11:32.580Z,21.44
2022-09-14T00:14:02.045Z,21.40
2022-09-14T00:16:33.631Z,21.37
2022-09-14T00:19:06.234Z,21.36
2022-09-14T00:21:35.141Z,21.34
2022-09-14T00:24:03.776Z,21.31
2022-09-14T00:26:33.021Z,21.26
2022-09-14T00:29:04.991Z,21.21
2022-09-14T00:31:35.980Z,21.15
2022-09-14T00:34:05.774Z,21.12
2022-09-14T00:36:38.361Z,21.13
2022-09-14T00:39:07.317Z,21.12
2022-09-14T00:44:28.368Z,21.05
2022-09-14T00:47:00.536Z,21.02
2022-09-14T00:49:35.855Z,20.97
2022-09-14T00:52:10.534Z,20.93
2022-09-14T00:54:42.480Z,20.88
2022-09-14T00:57:11.776Z,20.87
2022-09-14T00:59:42.535Z,20.83
2022-09-14T01:02:14.733Z,20.81
2022-09-14T01:04:43.364Z,20.78
2022-09-14T01:07:28.694Z,20.67
2022-09-14T01:10:12.181Z,20.61
2022-09-14T01:12:56.006Z,20.58
2022-09-14T01:15:32.045Z,20.59
2022-09-14T01:18:09.681Z,20.57
2022-09-14T01:20:44.087Z,20.56
2022-09-14T01:23:24.620Z,20.55
2022-09-14T01:26:39.431Z,20.51
2022-09-14T01:29:16.005Z,20.57
2022-09-14T01:31:52.701Z,20.58
2022-09-14T01:34:31.660Z,20.59
2022-09-14T01:37:06.287Z,20.58
2022-09-14T01:39:37.974Z,20.58
2022-09-14T01:42:06.868Z,20.58
2022-09-14T01:44:42.284Z,20.53
2022-09-14T01:47:16.244Z,20.51
2022-09-14T01:49:52.478Z,20.51
2022-09-14T01:52:25.661Z,20.50
2022-09-14T01:55:01.273Z,20.50
2022-09-14T01:57:36.235Z,20.48
2022-09-14T02:00:11.314Z,20.44
2022-09-14T02:02:44.690Z,20.40
2022-09-14T02:05:20.041Z,20.34
2022-09-14T02:07:47.786Z,20.31
2022-09-14T02:10:17.185Z,20.29
2022-09-14T02:12:45.936Z,20.26
2022-09-14T02:15:16.302Z,20.23
2022-09-14T02:17:44.301Z,20.23
2022-09-14T02:20:20.608Z,20.24
2022-09-14T02:22:48.289Z,20.31
2022-09-14T02:25:15.860Z,20.40
2022-09-14T02:27:43.203Z,20.50
2022-09-14T02:30:11.950Z,20.54
2022-09-14T02:32:53.345Z,20.51
2022-09-14T02:35:32.050Z,20.46
2022-09-14T02:38:12.966Z,20.42
2022-09-14T02:40:52.014Z,20.38
2022-09-14T02:43:33.395Z,20.33
2022-09-14T02:46:13.618Z,20.32
2022-09-14T02:48:52.240Z,20.29
2022-09-14T02:51:30.291Z,20.26
2022-09-14T02:54:07.191Z,20.28
2022-09-14T02:56:37.292Z,20.30
2022-09-14T02:59:05.210Z,20.32
2022-09-14T03:01:32.754Z,20.34
2022-09-14T03:04:02.057Z,20.35
2022-09-14T03:06:29.446Z,20.32
2022-09-14T03:08:56.829Z,20.28
2022-09-14T03:11:24.361Z,20.23
2022-09-14T03:13:51.722Z,20.20
2022-09-14T03:16:19.436Z,20.19
2022-09-14T03:18:46.994Z,20.18
2022-09-14T03:21:17.500Z,20.13
2022-09-14T03:23:47.959Z,20.09
2022-09-14T03:26:19.606Z,20.05
2022-09-14T03:28:51.451Z,20.04
2022-09-14T03:31:19.693Z,20.04
2022-09-14T03:33:52.042Z,20.04
2022-09-14T03:36:21.504Z,20.03
2022-09-14T03:38:52.149Z,20.02
2022-09-14T03:41:20.939Z,20.01
2022-09-14T03:43:48.788Z,20.03
2022-09-14T03:46:20.647Z,20.06
2022-09-14T03:48:48.491Z,20.10
2022-09-14T03:51:16.909Z,20.12
2022-09-14T03:53:46.032Z,20.12
2022-09-14T03:56:17.552Z,20.14
2022-09-14T03:58:47.736Z,20.14
2022-09-14T04:01:18.190Z,20.12
2022-09-14T04:03:46.246Z,20.11
2022-09-14T04:06:15.113Z,20.12
2022-09-14T04:08:46.171Z,20.15
2022-09-14T04:11:16.284Z,20.13
2022-09-14T04:13:44.369Z,20.14
2022-09-14T04:16:12.393Z,20.12
2022-09-14T04:18:39.862Z,20.10
2022-09-14T04:21:14.326Z,20.06
2022-09-14T04:24:03.438Z,20.06
2022-09-14T04:26:32.429Z,20.04
2022-09-14T04:29:00.192Z,20.05
2022-09-14T04:31:27.549Z,20.04
2022-09-14T04:33:57.098Z,19.99
2022-09-14T04:36:29.452Z,19.98
2022-09-14T04:38:59.211Z,20.01
2022-09-14T04:41:28.511Z,20.06
2022-09-14T04:43:57.905Z,20.07
2022-09-14T04:46:29.703Z,20.09
2022-09-14T04:48:57.372Z,20.16
2022-09-14T04:51:27.960Z,20.23
2022-09-14T04:53:59.109Z,20.27
2022-09-14T04:56:28.501Z,20.29
2022-09-14T04:58:59.656Z,20.25
2022-09-14T05:01:30.672Z,20.23
2022-09-14T05:03:58.937Z,20.22
2022-09-14T05:06:28.530Z,20.22
2022-09-14T05:08:57.320Z,20.22
2022-09-14T05:11:27.709Z,20.27
2022-09-14T05:13:58.521Z,20.29
2022-09-14T05:16:28.963Z,20.33
2022-09-14T05:18:58.835Z,20.35
2022-09-14T05:21:26.371Z,20.38
2022-09-14T05:23:55.182Z,20.42
2022-09-14T05:26:23.526Z,20.47
2022-09-14T05:28:52.985Z,20.51
2022-09-14T05:31:23.975Z,20.57
2022-09-14T05:33:52.385Z,20.60
2022-09-14T05:36:20.656Z,20.66
2022-09-14T05:38:48.266Z,20.66
2022-09-14T05:41:16.725Z,20.65
2022-09-14T05:43:44.833Z,20.64
2022-09-14T05:46:14.910Z,20.68
2022-09-14T05:48:43.987Z,20.72
2022-09-14T05:51:14.102Z,20.74
2022-09-14T05:53:41.897Z,20.79
2022-09-14T05:56:12.521Z,20.84
2022-09-14T05:58:41.749Z,20.91
2022-09-14T06:01:12.326Z,20.94
2022-09-14T06:03:40.377Z,20.94
2022-09-14T06:06:11.840Z,20.94
2022-09-14T06:08:40.313Z,20.97
2022-09-14T06:11:11.093Z,20.98
2022-09-14T06:13:38.934Z,21.06
2022-09-14T06:16:08.752Z,21.12
2022-09-14T06:18:37.733Z,21.21
2022-09-14T06:21:06.661Z,21.28
2022-09-14T06:23:36.490Z,21.32
2022-09-14T06:26:05.791Z,21.33
2022-09-14T06:28:34.754Z,21.35
2022-09-14T06:31:04.386Z,21.34
2022-09-14T06:33:31.892Z,21.35
2022-09-14T06:36:01.599Z,21.36
2022-09-14T06:38:30.215Z,21.38
2022-09-14T06:41:01.121Z,21.39
2022-09-14T06:43:32.160Z,21.42
2022-09-14T06:46:01.874Z,21.46
2022-09-14T06:48:32.983Z,21.49
2022-09-14T06:51:00.965Z,21.51
2022-09-14T06:53:28.381Z,21.52
2022-09-14T06:56:00.343Z,21.52
2022-09-14T06:58:27.601Z,21.52
2022-09-14T07:00:54.845Z,21.52
2022-09-14T07:03:22.119Z,21.52
2022-09-14T07:05:49.370Z,21.50
2022-09-14T07:08:16.706Z,21.49
2022-09-14T07:10:44.169Z,21.51
2022-09-14T07:13:13.053Z,21.55
2022-09-14T07:15:40.312Z,21.62
2022-09-14T07:18:07.611Z,21.70
2022-09-14T07:20:34.871Z,21.81
2022-09-14T07:23:02.088Z,21.94
2022-09-14T07:25:29.342Z,22.01
2022-09-14T07:27:56.822Z,22.12
2022-09-14T07:30:26.796Z,22.25
2022-09-14T07:32:54.152Z,22.34
2022-09-14T07:35:21.514Z,22.43
2022-09-14T07:37:48.802Z,22.48
2022-09-14T07:40:19.539Z,22.53
2022-09-14T07:42:55.548Z,22.63
2022-09-14T07:45:26.192Z,22.83
2022-09-14T07:47:53.459Z,23.17
2022-09-14T07:50:20.862Z,23.48
2022-09-14T07:52:50.802Z,23.76
2022-09-14T07:55:19.032Z,24.20
2022-09-14T07:57:56.207Z,24.75
2022-09-14T08:00:26.134Z,25.02
2022-09-14T08:02:55.271Z,24.99
2022-09-14T08:05:23.381Z,24.84
2022-09-14T08:07:54.525Z,24.70
2022-09-14T08:10:23.930Z,24.74
2022-09-14T08:12:52.407Z,24.93
2022-09-14T08:15:33.308Z,25.11
2022-09-14T08:18:02.295Z,25.16
2022-09-14T08:20:29.786Z,25.17
2022-09-14T08:22:58.869Z,25.11
2022-09-14T08:25:59.532Z,25.01
2022-09-14T08:28:29.100Z,25.04
2022-09-14T08:31:21.153Z,25.06
2022-09-14T08:33:54.341Z,25.12
2022-09-14T08:36:32.521Z,25.18
2022-09-14T08:39:01.579Z,25.31
2022-09-14T08:41:38.121Z,25.41
2022-09-14T08:44:20.843Z,25.43
2022-09-14T08:46:58.510Z,25.33
2022-09-14T08:49:57.151Z,25.04
2022-09-14T08:52:31.268Z,24.91
2022-09-14T08:55:17.148Z,24.83
2022-09-14T08:57:56.256Z,24.72
2022-09-14T09:04:36.799Z,24.79
2022-09-14T09:07:14.460Z,25.00
2022-09-14T09:09:46.454Z,25.14
2022-09-14T09:12:18.684Z,25.30
2022-09-14T09:14:52.198Z,25.47
2022-09-14T09:17:30.994Z,25.70
2022-09-14T09:20:10.094Z,25.90
2022-09-14T09:22:43.363Z,26.01
2022-09-14T09:25:23.111Z,26.17
2022-09-14T09:27:50.813Z,27.03
2022-09-14T09:30:18.576Z,27.73
2022-09-14T09:32:46.026Z,28.12
2022-09-14T09:35:23.591Z,29.16
2022-09-14T09:37:50.985Z,30.13
2022-09-14T09:40:28.707Z,31.64
2022-09-14T09:43:10.855Z,33.19
2022-09-14T09:45:50.398Z,34.43
2022-09-14T09:48:22.107Z,35.71
2022-09-14T09:51:09.831Z,36.84
2022-09-14T09:53:46.642Z,36.61
2022-09-14T09:56:20.612Z,35.62
2022-09-14T09:58:51.589Z,34.78
2022-09-14T10:01:23.223Z,34.31
2022-09-14T10:04:18.706Z,33.80
2022-09-14T10:06:50.177Z,33.56
2022-09-14T10:09:21.914Z,33.11
2022-09-14T10:11:59.445Z,32.56
2022-09-14T10:14:34.025Z,31.97
2022-09-14T10:17:17.579Z,31.16
2022-09-14T10:19:48.875Z,30.59
2022-09-14T10:22:28.089Z,30.05
2022-09-14T10:24:58.947Z,29.69
2022-09-14T10:27:41.035Z,29.36
2022-09-14T10:30:17.149Z,29.07
2022-09-14T10:32:54.882Z,28.77
2022-09-14T10:35:31.582Z,28.51
2022-09-14T10:38:31.604Z,28.18
2022-09-14T10:41:22.516Z,28.00
2022-09-14T10:44:43.970Z,27.81
2022-09-14T10:47:38.247Z,27.73
2022-09-14T10:50:27.101Z,27.69
2022-09-14T10:53:15.152Z,27.83
2022-09-14T10:55:54.360Z,27.90
2022-09-14T10:58:48.000Z,27.98
2022-09-14T11:01:34.304Z,28.27
2022-09-14T11:04:28.953Z,28.48
2022-09-14T11:07:07.935Z,28.52
2022-09-14T11:09:48.009Z,28.43
2022-09-14T11:12:28.088Z,28.29
2022-09-14T11:15:09.051Z,28.25
2022-09-14T11:17:55.809Z,28.32
2022-09-14T11:20:38.365Z,28.35
2022-09-14T11:23:26.531Z,28.40
2022-09-14T11:26:00.936Z,28.53
2022-09-14T11:28:37.002Z,28.56
2022-09-14T11:31:12.372Z,28.47
2022-09-14T11:33:47.481Z,28.32
2022-09-14T11:36:21.893Z,28.12
2022-09-14T11:38:56.372Z,27.98
2022-09-14T11:41:32.494Z,27.87
2022-09-14T11:44:06.299Z,27.89
2022-09-14T11:46:38.475Z,27.93
2022-09-14T11:49:19.644Z,27.87
2022-09-14T11:51:53.873Z,27.80
2022-09-14T11:54:24.171Z,27.74
2022-09-14T11:56:58.314Z,27.69
2022-09-14T11:59:50.827Z,27.58
2022-09-14T12:03:13.266Z,27.44
2022-09-14T12:05:44.486Z,27.43
2022-09-14T12:08:39.998Z,27.37
2022-09-14T12:11:33.061Z,27.33
2022-09-14T12:14:27.858Z,27.28
2022-09-14T12:17:22.522Z,27.18
2022-09-14T12:20:36.405Z,26.92
2022-09-14T12:23:30.733Z,26.81
2022-09-14T12:26:28.219Z,26.74
2022-09-14T12:29:04.839Z,26.68
2022-09-14T12:32:02.900Z,26.63
2022-09-14T12:34:33.239Z,26.76
2022-09-14T12:37:32.022Z,26.78
2022-09-14T12:40:34.582Z,26.81
2022-09-14T12:43:52.580Z,26.85
2022-09-14T12:46:39.863Z,26.96
2022-09-14T12:49:39.706Z,26.99
2022-09-14T12:52:38.892Z,26.97
2022-09-14T12:55:45.853Z,26.99
2022-09-14T12:58:34.101Z,27.04
2022-09-14T13:01:23.730Z,27.01
2022-09-14T13:03:53.868Z,27.01
2022-09-14T13:06:23.567Z,27.00
2022-09-14T13:08:57.473Z,27.00
2022-09-14T13:11:32.952Z,27.06
2022-09-14T13:14:02.277Z,27.18
2022-09-14T13:16:43.001Z,27.28
2022-09-14T13:19:23.643Z,27.34
2022-09-14T13:21:54.948Z,27.32
2022-09-14T13:24:44.932Z,27.20
2022-09-14T13:27:25.863Z,27.14
2022-09-14T13:30:03.366Z,27.11
2022-09-14T13:32:33.083Z,27.14
2022-09-14T13:35:03.380Z,27.16
2022-09-14T13:37:31.657Z,27.22
2022-09-14T13:40:00.547Z,27.26
2022-09-14T13:42:28.142Z,27.26
2022-09-14T13:44:56.079Z,27.19
2022-09-14T13:47:25.920Z,27.09
2022-09-14T13:49:55.394Z,27.00
2022-09-14T13:52:57.452Z,26.85
2022-09-14T13:55:28.837Z,26.76
2022-09-14T13:58:21.442Z,26.64
2022-09-14T14:00:59.422Z,26.58
2022-09-14T14:03:34.466Z,26.58
2022-09-14T14:06:22.036Z,26.55
2022-09-14T14:09:02.696Z,26.58
2022-09-14T14:11:36.386Z,26.60
2022-09-14T14:14:30.804Z,26.62
2022-09-14T14:17:36.867Z,26.60
2022-09-14T14:20:35.117Z,26.58
2022-09-14T14:23:22.614Z,26.69
2022-09-14T14:25:54.445Z,26.75
2022-09-14T14:28:28.099Z,26.76
2022-09-14T14:30:58.949Z,26.78
2022-09-14T14:33:26.787Z,26.78
2022-09-14T14:35:56.947Z,26.74
2022-09-14T14:38:25.244Z,26.69
2022-09-14T14:40:55.611Z,26.67
2022-09-14T14:43:27.004Z,26.61
2022-09-14T14:45:57.747Z,26.51
2022-09-14T14:48:26.200Z,26.44
2022-09-14T14:50:55.453Z,26.38
2022-09-14T14:53:23.331Z,26.33
2022-09-14T14:55:57.168Z,26.29
2022-09-14T14:58:26.278Z,26.29
2022-09-14T15:00:54.543Z,26.30
2022-09-14T15:03:22.015Z,26.34
2022-09-14T15:05:50.325Z,26.38
2022-09-14T15:08:20.070Z,26.39
2022-09-14T15:10:47.560Z,26.35
2022-09-14T15:13:14.985Z,26.32
2022-09-14T15:15:44.419Z,26.29
2022-09-14T15:18:11.825Z,26.27
2022-09-14T15:20:39.256Z,26.28
2022-09-14T15:23:06.575Z,26.30
2022-09-14T15:25:33.898Z,26.33
2022-09-14T15:28:01.445Z,26.34
2022-09-14T15:30:28.784Z,26.34
2022-09-14T15:32:57.413Z,26.34
2022-09-14T15:35:24.703Z,26.36
2022-09-14T15:37:52.078Z,26.38
2022-09-14T15:40:19.402Z,26.39
2022-09-14T15:42:46.888Z,26.42
2022-09-14T15:45:14.744Z,26.51
2022-09-14T15:47:43.568Z,26.52
2022-09-14T15:50:12.401Z,26.52
2022-09-14T15:52:40.245Z,26.49
2022-09-14T15:55:10.523Z,26.45
2022-09-14T15:57:39.383Z,26.37
2022-09-14T16:00:10.947Z,26.32
2022-09-14T16:02:38.342Z,26.22
2022-09-14T16:05:07.650Z,26.13
2022-09-14T16:07:36.318Z,26.05
2022-09-14T16:10:03.969Z,25.98
2022-09-14T16:12:31.271Z,25.89
2022-09-14T16:14:58.497Z,25.81
2022-09-14T16:17:25.837Z,25.74
2022-09-14T16:19:53.103Z,25.68
2022-09-14T16:22:21.660Z,25.59
2022-09-14T16:24:50.348Z,25.47
2022-09-14T16:27:17.667Z,25.41
2022-09-14T16:29:44.938Z,25.34
2022-09-14T16:32:12.150Z,25.25
2022-09-14T16:34:39.357Z,25.19
2022-09-14T16:37:06.663Z,25.14
2022-09-14T16:39:35.151Z,25.10
2022-09-14T16:42:04.285Z,25.06
2022-09-14T16:44:31.752Z,25.02
2022-09-14T16:46:59.402Z,24.97
2022-09-14T16:49:28.364Z,24.95
2022-09-14T16:51:56.333Z,24.93
2022-09-14T16:54:25.605Z,24.92
2022-09-14T16:56:56.915Z,24.89
2022-09-14T16:59:26.042Z,24.87
2022-09-14T17:01:55.282Z,24.87
2022-09-14T17:04:24.680Z,24.88
2022-09-14T17:06:55.078Z,24.87
2022-09-14T17:09:26.594Z,24.83
2022-09-14T17:11:55.929Z,24.81
2022-09-14T17:14:28.516Z,24.78
2022-09-14T17:16:56.923Z,24.78
2022-09-14T17:19:24.964Z,24.76
2022-09-14T17:21:52.748Z,24.74
2022-09-14T17:24:21.916Z,24.69
2022-09-14T17:26:49.953Z,24.67
2022-09-14T17:29:17.714Z,24.64
2022-09-14T17:31:46.862Z,24.62
2022-09-14T17:34:16.929Z,24.60
2022-09-14T17:36:45.572Z,24.57
2022-09-14T17:39:15.219Z,24.53
2022-09-14T17:41:43.987Z,24.48
2022-09-14T17:44:13.639Z,24.41
2022-09-14T17:46:49.623Z,24.35
2022-09-14T17:49:21.249Z,24.26
2022-09-14T17:51:49.203Z,24.18
2022-09-14T17:54:17.738Z,24.12
2022-09-14T17:56:45.195Z,24.08
2022-09-14T17:59:15.274Z,24.03
2022-09-14T18:01:42.562Z,23.98
2022-09-14T18:04:15.192Z,23.90
2022-09-14T18:06:46.853Z,23.83
2022-09-14T18:09:18.526Z,23.77
2022-09-14T18:11:47.063Z,23.71
2022-09-14T18:14:15.934Z,23.66
2022-09-14T18:16:44.371Z,23.64
2022-09-14T18:19:12.776Z,23.65
2022-09-14T18:21:40.373Z,23.63
2022-09-14T18:24:11.372Z,23.66
2022-09-14T18:26:38.662Z,23.68
2022-09-14T18:29:05.932Z,23.70
2022-09-14T18:31:33.498Z,23.74
2022-09-14T18:34:01.567Z,23.78
2022-09-14T18:36:30.126Z,23.80
2022-09-14T18:38:58.080Z,23.79
2022-09-14T18:41:29.462Z,23.81
2022-09-14T18:43:57.456Z,23.83
2022-09-14T18:46:28.048Z,23.82
2022-09-14T18:48:59.821Z,23.78
2022-09-14T18:51:29.347Z,23.73
2022-09-14T18:53:57.246Z,23.71
2022-09-14T18:56:26.689Z,23.67
2022-09-14T18:58:54.243Z,23.65
2022-09-14T19:01:21.852Z,23.65
2022-09-14T19:03:49.399Z,23.68
2022-09-14T19:06:18.957Z,23.72
2022-09-14T19:08:46.888Z,23.75
2022-09-14T19:11:17.524Z,23.78
2022-09-14T19:13:47.568Z,23.83
2022-09-14T19:16:17.529Z,23.88
2022-09-14T19:18:47.705Z,23.91
2022-09-14T19:21:20.588Z,23.91
2022-09-14T19:23:57.458Z,23.89
2022-09-14T19:26:24.995Z,23.90
2022-09-14T19:28:53.675Z,23.89
2022-09-14T19:31:23.502Z,23.85
2022-09-14T19:33:51.689Z,23.81
2022-09-14T19:36:22.609Z,23.78
2022-09-14T19:38:51.828Z,23.78
2022-09-14T19:41:21.494Z,23.77
2022-09-14T19:43:49.473Z,23.72
2022-09-14T19:46:21.282Z,23.67
2022-09-14T19:48:49.027Z,23.62
2022-09-14T19:51:20.649Z,23.58
2022-09-14T19:53:51.049Z,23.52
2022-09-14T19:56:21.875Z,23.49
2022-09-14T19:58:53.546Z,23.44
2022-09-14T20:01:25.560Z,23.40
2022-09-14T20:03:53.708Z,23.33
2022-09-14T20:06:25.887Z,23.27
2022-09-14T20:08:57.087Z,23.22
2022-09-14T20:11:27.608Z,23.17
2022-09-14T20:13:56.920Z,23.11
2022-09-14T20:16:29.547Z,23.04
2022-09-14T20:18:59.472Z,23.00
2022-09-14T20:21:27.989Z,22.92
2022-09-14T20:24:16.094Z,22.87
2022-09-14T20:26:45.443Z,22.77
2022-09-14T20:29:13.205Z,22.71
2022-09-14T20:31:41.935Z,22.66
2022-09-14T20:34:09.690Z,22.61
2022-09-14T20:36:37.249Z,22.58
2022-09-14T20:39:05.042Z,22.57
2022-09-14T20:41:34.837Z,22.57
2022-09-14T20:44:03.647Z,22.55
2022-09-14T20:46:35.555Z,22.53
2022-09-14T20:49:07.850Z,22.51
2022-09-14T20:51:36.575Z,22.52
2022-09-14T20:54:05.262Z,22.53
2022-09-14T20:56:35.125Z,22.52
2022-09-14T20:59:07.200Z,22.51
2022-09-14T21:01:37.487Z,22.47
2022-09-14T21:04:10.741Z,22.43
2022-09-14T21:06:40.652Z,22.39
2022-09-14T21:09:10.225Z,22.34
2022-09-14T21:11:38.375Z,22.30
2022-09-14T21:14:06.566Z,22.25
2022-09-14T21:16:37.023Z,22.19
2022-09-14T21:19:10.305Z,22.13
2022-09-14T21:21:38.075Z,22.04
2022-09-14T21:24:07.134Z,21.99
2022-09-14T21:26:34.539Z,21.92
2022-09-14T21:29:06.224Z,21.91
2022-09-14T21:31:36.328Z,21.89
2022-09-14T21:34:07.296Z,21.87
2022-09-14T21:36:38.417Z,21.84
2022-09-14T21:39:09.782Z,21.80
2022-09-14T21:41:41.116Z,21.76
2022-09-14T21:44:09.141Z,21.74
2022-09-14T21:46:36.704Z,21.71
2022-09-14T21:49:04.253Z,21.69
2022-09-14T21:51:36.539Z,21.66
2022-09-14T21:54:07.101Z,21.63
2022-09-14T21:56:37.987Z,21.60
2022-09-14T21:59:08.970Z,21.56
2022-09-14T22:01:36.801Z,21.53
2022-09-14T22:04:06.477Z,21.52
2022-09-14T22:06:35.674Z,21.49
2022-09-14T22:09:03.486Z,21.45
2022-09-14T22:11:33.619Z,21.41
2022-09-14T22:14:03.734Z,21.40
2022-09-14T22:16:34.812Z,21.36
2022-09-14T22:19:06.602Z,21.32
2022-09-14T22:21:37.908Z,21.28
2022-09-14T22:24:07.683Z,21.27
2022-09-14T22:26:36.087Z,21.24
2022-09-14T22:29:04.533Z,21.23
2022-09-14T22:31:32.931Z,21.22
2022-09-14T22:34:00.542Z,21.21
2022-09-14T22:36:28.986Z,21.16
2022-09-14T22:38:59.832Z,21.11
2022-09-14T22:41:28.746Z,21.06
2022-09-14T22:43:56.611Z,21.01
2022-09-14T22:46:25.253Z,20.98
2022-09-14T22:48:52.829Z,20.95
2022-09-14T22:51:23.314Z,20.91
2022-09-14T22:53:51.407Z,20.90
2022-09-14T22:56:23.139Z,20.86
2022-09-14T22:58:51.365Z,20.84
2022-09-14T23:01:22.790Z,20.81
2022-09-14T23:03:54.995Z,20.76
2022-09-14T23:06:26.082Z,20.73
2022-09-14T23:08:53.373Z,20.69
2022-09-14T23:11:22.007Z,20.65
2022-09-14T23:13:50.225Z,20.60
2022-09-14T23:16:20.098Z,20.54
2022-09-14T23:18:51.883Z,20.49
2022-09-14T23:21:20.035Z,20.45
2022-09-14T23:23:52.268Z,20.39
2022-09-14T23:26:22.010Z,20.36
2022-09-14T23:28:54.580Z,20.33
2022-09-14T23:31:23.690Z,20.32
2022-09-14T23:33:52.364Z,20.30
2022-09-14T23:36:22.059Z,20.28
2022-09-14T23:38:50.225Z,20.27
2022-09-14T23:41:19.438Z,20.24
2022-09-14T23:43:48.170Z,20.21
2022-09-14T23:46:16.385Z,20.19
2022-09-14T23:48:44.566Z,20.17
2022-09-14T23:51:13.063Z,20.13
2022-09-14T23:53:41.864Z,20.11
2022-09-14T23:56:10.352Z,20.10
2022-09-14T23:58:38.236Z,20.07
